createdAt,value
2023-04-16T00:05:49.331Z,94
2023-04-16T00:14:04.814Z,93.5
2023-04-16T00:22:20.317Z,93.5
2023-04-16T00:30:35.807Z,93.5
2023-04-16T00:38:51.307Z,93.5
2023-04-16T00:47:06.789Z,92.5
2023-04-16T00:55:22.267Z,93
2023-04-16T01:03:37.772Z,92.5
2023-04-16T01:11:53.249Z,93
2023-04-16T01:28:24.209Z,93
2023-04-16T01:44:55.166Z,93
2023-04-16T01:53:10.616Z,93
2023-04-16T02:01:26.086Z,93
2023-04-16T02:09:41.594Z,93
2023-04-16T02:17:57.031Z,93
2023-04-16T02:26:12.538Z,93
2023-04-16T02:34:27.978Z,92.5
2023-04-16T02:42:43.458Z,92
2023-04-16T02:50:58.923Z,92.5
2023-04-16T02:59:14.398Z,93.5
2023-04-16T03:07:29.870Z,93.5
2023-04-16T03:15:45.339Z,94
2023-04-16T03:24:00.820Z,92.5
2023-04-16T03:32:16.314Z,93
2023-04-16T03:40:31.785Z,93.5
2023-04-16T03:48:47.250Z,93
2023-04-16T03:57:02.714Z,93.5
2023-04-16T04:05:18.190Z,93.5
2023-04-16T04:13:33.664Z,94.5
2023-04-16T04:21:49.137Z,94
2023-04-16T04:38:20.073Z,93.5
2023-04-16T04:46:35.556Z,93.5
2023-04-16T04:54:51.028Z,93.5
2023-04-16T05:03:06.508Z,93
2023-04-16T05:11:21.998Z,92
2023-04-16T05:19:37.479Z,93
2023-04-16T05:27:52.976Z,93.5
2023-04-16T05:36:08.452Z,92.5
2023-04-16T05:44:23.943Z,92.5
2023-04-16T05:52:39.427Z,93
2023-04-16T06:00:54.948Z,92
2023-04-16T06:09:10.436Z,93
2023-04-16T06:17:25.937Z,91
2023-04-16T06:25:41.447Z,91.5
2023-04-16T06:33:56.973Z,88.5
2023-04-16T06:42:12.473Z,90
2023-04-16T06:50:27.984Z,89.5
2023-04-16T06:58:43.499Z,88.5
2023-04-16T07:06:59.016Z,88.5
2023-04-16T07:15:14.556Z,89.5
2023-04-16T07:31:45.623Z,90
2023-04-16T07:40:01.145Z,91
2023-04-16T07:48:16.676Z,90.5
2023-04-16T07:56:32.172Z,91.5
2023-04-16T08:04:47.708Z,90.5
2023-04-16T08:13:03.229Z,91
2023-04-16T08:21:18.746Z,89
2023-04-16T08:29:34.322Z,88.5
2023-04-16T08:37:49.929Z,87.5
2023-04-16T08:46:05.540Z,86.5
2023-04-16T08:54:21.008Z,87.5
2023-04-16T09:02:36.540Z,88
2023-04-16T09:10:52.184Z,89
2023-04-16T09:19:07.658Z,87.5
2023-04-16T09:27:23.213Z,87.5
2023-04-16T09:35:38.815Z,87
2023-04-16T09:43:54.408Z,84.5
2023-04-16T09:52:10.023Z,84.5
2023-04-16T10:00:25.606Z,83
2023-04-16T10:08:41.206Z,83.5
2023-04-16T10:25:12.382Z,84
2023-04-16T10:41:43.585Z,81
2023-04-16T10:49:59.243Z,83
2023-04-16T10:58:14.800Z,82.5
2023-04-16T11:06:30.408Z,83.5
2023-04-16T11:14:45.995Z,83.5
2023-04-16T11:23:01.639Z,82.5
2023-04-16T11:31:17.174Z,82
2023-04-16T11:39:32.760Z,81
2023-04-16T11:47:48.373Z,80
2023-04-16T11:56:04.013Z,77.5
2023-04-16T12:04:19.647Z,80
2023-04-16T12:12:35.267Z,76.5
2023-04-16T12:20:50.876Z,78.5
2023-04-16T12:29:06.528Z,72.5
2023-04-16T12:37:22.131Z,70.5
2023-04-16T12:45:37.752Z,74
2023-04-16T12:53:53.361Z,72
2023-04-16T13:02:08.960Z,76.5
2023-04-16T13:10:24.611Z,72
2023-04-16T13:18:40.190Z,74.5
2023-04-16T13:35:11.478Z,75
2023-04-16T13:51:42.606Z,72.5
2023-04-16T13:59:58.114Z,73.5
2023-04-16T14:08:13.673Z,75
2023-04-16T14:16:29.255Z,75
2023-04-16T14:24:44.800Z,73.5
2023-04-16T14:33:00.398Z,80
2023-04-16T14:41:15.964Z,76.5
2023-04-16T14:49:31.503Z,77
2023-04-16T14:57:47.087Z,75.5
2023-04-16T15:06:02.684Z,72.5
2023-04-16T15:14:18.407Z,71.5
2023-04-16T15:22:33.913Z,70
2023-04-16T15:30:49.508Z,69.5
2023-04-16T15:39:05.067Z,72.5
2023-04-16T15:47:20.666Z,71.5
2023-04-16T15:55:36.263Z,71.5
2023-04-16T16:03:51.862Z,74
2023-04-16T16:12:07.452Z,72.5
2023-04-16T16:20:23.024Z,72
2023-04-16T16:28:38.617Z,73
2023-04-16T16:45:09.742Z,73
2023-04-16T17:01:40.876Z,74
2023-04-16T17:18:11.950Z,75.5
2023-04-16T17:34:43.016Z,76.5
2023-04-16T17:42:58.540Z,76
2023-04-16T17:51:14.075Z,78
2023-04-16T17:59:29.592Z,78
2023-04-16T18:07:45.108Z,77
2023-04-16T18:16:00.647Z,76
2023-04-16T18:24:16.130Z,76.5
2023-04-16T18:32:31.634Z,78
2023-04-16T18:40:47.141Z,78
2023-04-16T18:49:02.617Z,78.5
2023-04-16T18:57:18.132Z,80.5
2023-04-16T19:05:33.633Z,79
2023-04-16T19:13:49.123Z,79.5
2023-04-16T19:22:04.607Z,81
2023-04-16T19:30:20.104Z,81
2023-04-16T19:38:35.576Z,80.5
2023-04-16T19:46:51.065Z,81
2023-04-16T19:55:06.536Z,81.5
2023-04-16T20:03:22.143Z,80
2023-04-16T20:11:37.534Z,80.5
2023-04-16T20:28:08.524Z,82.5
2023-04-16T20:36:24.024Z,81
2023-04-16T20:44:39.590Z,81.5
2023-04-16T20:52:54.995Z,83
2023-04-16T21:01:10.506Z,81
2023-04-16T21:09:25.992Z,80.5
2023-04-16T21:17:41.464Z,81
2023-04-16T21:25:56.954Z,80.5
2023-04-16T21:34:12.423Z,79.5
2023-04-16T21:42:27.886Z,79.5
2023-04-16T21:50:43.364Z,81
2023-04-16T21:58:58.854Z,80
2023-04-16T22:07:14.357Z,79.5
2023-04-16T22:15:29.823Z,81
2023-04-16T22:23:45.339Z,80
2023-04-16T22:32:00.788Z,80.5
2023-04-16T22:40:16.276Z,79.5
2023-04-16T22:48:31.740Z,79.5
2023-04-16T22:56:47.226Z,79
2023-04-16T23:05:02.691Z,80
2023-04-16T23:21:33.623Z,80.5
2023-04-16T23:38:04.549Z,81.5
2023-04-16T23:46:20.003Z,82.5
2023-04-16T23:54:35.458Z,82.5
